Orbital elements of BREEZE-M R/B
| Launched | 15 June 2004 |
| Flight ended | – |
| Launch site | Tyuratam Missile and Space Center, Kazakhstan (Also known as Baikonur Cosmodrome) |
| Owner | Commonwealth of Independent States (former USSR) |
| NORAD ID | 28360 |
| Date fetched |
Epoch osculation |
Inc. [°] |
Ecc. | RA asc node [hr] |
Arg Peri. [°] |
Mean anom [°] |
Mean motion [rev/day] |
Abs. mag |
| Date fetched |
Epoch osculation |
Inc. [°] |
Ecc. | RA asc node [hr] |
Arg Peri. [°] |
Mean anom [°] |
Mean motion [rev/day] |
Abs. mag |
| 2026 May 01 17:56 | 2026 Apr 29 22:37:50 | 23.7634 | 0.59981 | 6.4895 | 321.7209 | 7.9900 | 2.01484 | 5.243 |
| 2026 Apr 30 17:56 | 2026 Apr 29 22:37:50 | 23.7634 | 0.59981 | 6.4895 | 321.7209 | 7.9900 | 2.01484 | 5.243 |
| 2026 Apr 29 17:57 | 2026 Apr 22 23:53:09 | 23.7398 | 0.59985 | 6.5640 | 319.8236 | 7.9900 | 2.01484 | 5.243 |
| 2026 Apr 28 17:56 | 2026 Apr 22 23:53:09 | 23.7398 | 0.59985 | 6.5640 | 319.8236 | 7.9900 | 2.01484 | 5.243 |
| 2026 Apr 27 17:58 | 2026 Apr 22 23:53:09 | 23.7398 | 0.59985 | 6.5640 | 319.8236 | 7.9900 | 2.01484 | 5.243 |
| 2026 Apr 26 17:58 | 2026 Apr 22 23:53:09 | 23.7398 | 0.59985 | 6.5640 | 319.8236 | 7.9900 | 2.01484 | 5.243 |
| 2026 Apr 25 17:58 | 2026 Apr 22 23:53:09 | 23.7398 | 0.59985 | 6.5640 | 319.8236 | 7.9900 | 2.01484 | 5.243 |
| 2026 Apr 24 17:59 | 2026 Apr 22 23:53:09 | 23.7398 | 0.59985 | 6.5640 | 319.8236 | 7.9900 | 2.01484 | 5.243 |
| 2026 Apr 23 17:57 | 2026 Apr 19 00:36:16 | 23.7260 | 0.59987 | 6.6066 | 318.7401 | 7.9900 | 2.01484 | 5.243 |
| 2026 Apr 22 17:57 | 2026 Apr 19 00:36:16 | 23.7260 | 0.59987 | 6.6066 | 318.7401 | 7.9900 | 2.01484 | 5.243 |
| 2026 Apr 21 17:57 | 2026 Apr 19 00:36:16 | 23.7260 | 0.59987 | 6.6066 | 318.7401 | 7.9900 | 2.01484 | 5.243 |
| 2026 Apr 20 17:57 | 2026 Apr 19 00:36:16 | 23.7260 | 0.59987 | 6.6066 | 318.7401 | 7.9900 | 2.01484 | 5.243 |
| 2026 Apr 19 17:58 | 2026 Apr 19 00:36:16 | 23.7260 | 0.59987 | 6.6066 | 318.7401 | 7.9900 | 2.01484 | 5.243 |
| 2026 Apr 18 17:56 | 2026 Apr 11 13:57:27 | 23.6997 | 0.59989 | 6.6866 | 316.7064 | 7.9900 | 2.01484 | 5.243 |
| 2026 Apr 16 17:57 | 2026 Apr 11 13:57:27 | 23.6997 | 0.59989 | 6.6866 | 316.7064 | 7.9900 | 2.01484 | 5.243 |
| 2026 Apr 14 17:57 | 2026 Apr 11 13:57:27 | 23.6997 | 0.59989 | 6.6866 | 316.7064 | 7.9900 | 2.01484 | 5.243 |
| 2026 Apr 13 17:57 | 2026 Apr 11 13:57:27 | 23.6997 | 0.59989 | 6.6866 | 316.7064 | 7.9900 | 2.01484 | 5.243 |
| 2026 Apr 12 17:57 | 2026 Apr 08 02:35:23 | 23.6874 | 0.59989 | 6.7239 | 315.7580 | 7.9900 | 2.01484 | 5.243 |
| 2026 Apr 11 17:57 | 2026 Apr 08 02:35:23 | 23.6874 | 0.59989 | 6.7239 | 315.7580 | 7.9900 | 2.01484 | 5.243 |
| 2026 Apr 10 17:58 | 2026 Apr 08 02:35:23 | 23.6874 | 0.59989 | 6.7239 | 315.7580 | 7.9900 | 2.01484 | 5.243 |
| 2026 Apr 09 18:01 | 2026 Apr 08 02:35:23 | 23.6874 | 0.59989 | 6.7239 | 315.7580 | 7.9900 | 2.01484 | 5.243 |
| 2026 Apr 08 17:57 | 2026 Apr 08 02:35:23 | 23.6874 | 0.59989 | 6.7239 | 315.7580 | 7.9900 | 2.01484 | 5.243 |
| 2026 Apr 07 17:57 | 2026 Apr 01 03:51:17 | 23.6626 | 0.59988 | 6.7987 | 313.8618 | 7.9900 | 2.01484 | 5.243 |
| 2026 Apr 06 17:57 | 2026 Apr 01 03:51:17 | 23.6626 | 0.59988 | 6.7987 | 313.8618 | 7.9900 | 2.01484 | 5.243 |
| 2026 Apr 05 17:56 | 2026 Apr 01 03:51:17 | 23.6626 | 0.59988 | 6.7987 | 313.8618 | 7.9900 | 2.01484 | 5.243 |
| 2026 Apr 04 17:57 | 2026 Apr 01 03:51:17 | 23.6626 | 0.59988 | 6.7987 | 313.8618 | 7.9900 | 2.01484 | 5.243 |